PWSweather.com
Personal Weather Stations
Station Observations
KPAEXPOR2
Wellington Estates, Export, PA 15632

Wellington EstatesExport, PA 15632

Lat: 40.446, Lon: -79.592

Elevation: 1286

Station Type: PWS1000-TD

http://www.westmorelandweather.com

Latest ConditionsUpdated 5:00:02 AM EST Saturday, Jan 31, 2015
Currently Today's Max Today's Min Today's Average
Temperature 5.5°F-14.7°C 10.9°F-11.7°C 5.5°F-14.7°C 8.6°F-13.0°C
Dew Point -4.2°F-20.1°C -0.5°F-18.1°C -4.2°F-20.1°C -2.5°F-19.2°C
Winds Calm Calm Calm Calm - Calm Calm
Wind Gusts -- -- - -
Humidity 63% 63% 57% 60%
Pressure 30.33 in1027.1 mb 30.37 in1028.4 mb 30.33 in1027.1 mb -
Hour Temp Dew Point Humidity Winds Wind Gusts Pressure Precip Precip Rate Daily Precip Total
05:00 AM 5.5°F-14.7°C -4.2°F-20.1°C 63% Calm Calm -- 30.33 in1027.1 mb 0.00 in0.0 mm 0.00 in/hr0.0 mm/hr 0.00 in0.0 mm
04:45 AM 5.7°F-14.6°C -4.1°F-20.1°C 63% Calm Calm -- 30.33 in1027.1 mb 0.00 in0.0 mm 0.00 in/hr0.0 mm/hr 0.00 in0.0 mm
04:30 AM 6.1°F-14.4°C -4.1°F-20.1°C 62% Calm Calm -- 30.33 in1027.1 mb 0.00 in0.0 mm 0.00 in/hr0.0 mm/hr 0.00 in0.0 mm
04:15 AM 6.2°F-14.3°C -3.9°F-19.9°C 62% Calm Calm -- 30.34 in1027.4 mb 0.00 in0.0 mm 0.00 in/hr0.0 mm/hr 0.00 in0.0 mm
04:00 AM 6.6°F-14.1°C -3.9°F-19.9°C 61% Calm Calm -- 30.35 in1027.8 mb 0.00 in0.0 mm 0.00 in/hr0.0 mm/hr 0.00 in0.0 mm
03:45 AM 7.0°F-13.9°C -3.5°F-19.7°C 61% Calm Calm -- 30.34 in1027.4 mb 0.00 in0.0 mm 0.00 in/hr0.0 mm/hr 0.00 in0.0 mm
03:30 AM 7.3°F-13.7°C -3.5°F-19.7°C 60% Calm Calm -- 30.35 in1027.8 mb 0.00 in0.0 mm 0.00 in/hr0.0 mm/hr 0.00 in0.0 mm
03:15 AM 7.7°F-13.5°C -3.2°F-19.6°C 60% Calm Calm -- 30.35 in1027.8 mb 0.00 in0.0 mm 0.00 in/hr0.0 mm/hr 0.00 in0.0 mm
03:00 AM 8.0°F-13.3°C -2.9°F-19.4°C 60% Calm Calm -- 30.36 in1028.1 mb 0.00 in0.0 mm 0.00 in/hr0.0 mm/hr 0.00 in0.0 mm
02:45 AM 8.2°F-13.2°C -3.1°F-19.5°C 59% Calm Calm -- 30.36 in1028.1 mb 0.00 in0.0 mm 0.00 in/hr0.0 mm/hr 0.00 in0.0 mm
02:30 AM 8.6°F-13.0°C -2.7°F-19.3°C 59% Calm Calm -- 30.37 in1028.4 mb 0.00 in0.0 mm 0.00 in/hr0.0 mm/hr 0.00 in0.0 mm
02:15 AM 8.9°F-12.8°C -2.7°F-19.3°C 58% Calm Calm -- 30.37 in1028.4 mb 0.00 in0.0 mm 0.00 in/hr0.0 mm/hr 0.00 in0.0 mm
02:00 AM 9.5°F-12.5°C -2.2°F-19.0°C 58% Calm Calm -- 30.37 in1028.4 mb 0.00 in0.0 mm 0.00 in/hr0.0 mm/hr 0.00 in0.0 mm
01:45 AM 9.8°F-12.3°C -2.2°F-19.0°C 57% Calm Calm -- 30.37 in1028.4 mb 0.00 in0.0 mm 0.00 in/hr0.0 mm/hr 0.00 in0.0 mm
01:30 AM 10.2°F-12.1°C -1.9°F-18.8°C 57% Calm Calm -- 30.37 in1028.4 mb 0.00 in0.0 mm 0.00 in/hr0.0 mm/hr 0.00 in0.0 mm
01:15 AM 10.4°F-12.0°C -1.4°F-18.6°C 58% Calm Calm -- 30.37 in1028.4 mb 0.00 in0.0 mm 0.00 in/hr0.0 mm/hr 0.00 in0.0 mm
01:00 AM 10.7°F-11.8°C -0.7°F-18.2°C 59% Calm Calm -- 30.37 in1028.4 mb 0.00 in0.0 mm 0.00 in/hr0.0 mm/hr 0.00 in0.0 mm
12:45 AM 10.7°F-11.8°C -0.7°F-18.2°C 59% Calm Calm -- 30.37 in1028.4 mb 0.00 in0.0 mm 0.00 in/hr0.0 mm/hr 0.00 in0.0 mm
12:30 AM 10.9°F-11.7°C -0.9°F-18.3°C 58% Calm Calm -- 30.37 in1028.4 mb 0.00 in0.0 mm 0.00 in/hr0.0 mm/hr 0.00 in0.0 mm
12:15 AM 10.9°F-11.7°C -0.5°F-18.1°C 59% Calm Calm -- 30.36 in1028.1 mb 0.00 in0.0 mm 0.00 in/hr0.0 mm/hr 0.00 in0.0 mm
12:00 AM 10.9°F-11.7°C -0.5°F-18.1°C 59% Calm Calm -- 30.37 in1028.4 mb 0.00 in0.0 mm 0.00 in/hr0.0 mm/hr 0.00 in0.0 mm